sensor_id;sensor_type;location;lat;lon;timestamp;pressure;altitude;pressure_sealevel;temperature;humidity
70589;BME280;58152;49.202;18.744;2023-11-18T00:01:39;97380.88;;;3.70;72.12
70589;BME280;58152;49.202;18.744;2023-11-18T00:04:15;97377.50;;;3.65;72.23
70589;BME280;58152;49.202;18.744;2023-11-18T00:06:46;97387.88;;;3.65;72.18
70589;BME280;58152;49.202;18.744;2023-11-18T00:09:36;97393.13;;;3.62;72.21
70589;BME280;58152;49.202;18.744;2023-11-18T00:12:05;97395.66;;;3.65;71.95
70589;BME280;58152;49.202;18.744;2023-11-18T00:14:33;97399.13;;;3.67;72.26
70589;BME280;58152;49.202;18.744;2023-11-18T00:17:01;97392.22;;;3.64;72.02
70589;BME280;58152;49.202;18.744;2023-11-18T00:19:34;97401.72;;;3.65;71.69
70589;BME280;58152;49.202;18.744;2023-11-18T00:22:01;97398.22;;;3.68;71.94
70589;BME280;58152;49.202;18.744;2023-11-18T00:24:30;97412.00;;;3.71;71.96
70589;BME280;58152;49.202;18.744;2023-11-18T00:27:21;97409.41;;;3.71;72.29
70589;BME280;58152;49.202;18.744;2023-11-18T00:29:57;97410.28;;;3.70;72.11
70589;BME280;58152;49.202;18.744;2023-11-18T00:32:37;97399.97;;;3.67;72.20
70589;BME280;58152;49.202;18.744;2023-11-18T00:35:04;97412.84;;;3.72;72.26
70589;BME280;58152;49.202;18.744;2023-11-18T00:37:30;97405.09;;;3.70;72.37
70589;BME280;58152;49.202;18.744;2023-11-18T00:39:56;97405.13;;;3.69;71.87
70589;BME280;58152;49.202;18.744;2023-11-18T00:42:23;97408.59;;;3.68;71.82
70589;BME280;58152;49.202;18.744;2023-11-18T00:44:48;97419.81;;;3.70;71.73
70589;BME280;58152;49.202;18.744;2023-11-18T00:47:14;97407.75;;;3.67;71.79
70589;BME280;58152;49.202;18.744;2023-11-18T00:49:41;97414.69;;;3.65;71.93
70589;BME280;58152;49.202;18.744;2023-11-18T00:52:10;97425.09;;;3.64;71.76
70589;BME280;58152;49.202;18.744;2023-11-18T00:54:35;97419.06;;;3.63;71.73
70589;BME280;58152;49.202;18.744;2023-11-18T00:57:01;97427.75;;;3.61;71.61
70589;BME280;58152;49.202;18.744;2023-11-18T00:59:27;97431.19;;;3.63;72.02
70589;BME280;58152;49.202;18.744;2023-11-18T01:01:53;97425.13;;;3.62;72.21
70589;BME280;58152;49.202;18.744;2023-11-18T01:04:36;97416.47;;;3.63;72.24
70589;BME280;58152;49.202;18.744;2023-11-18T01:07:02;97424.25;;;3.62;72.45
70589;BME280;58152;49.202;18.744;2023-11-18T01:09:34;97419.94;;;3.61;72.66
70589;BME280;58152;49.202;18.744;2023-11-18T01:12:04;97418.22;;;3.61;72.59
70589;BME280;58152;49.202;18.744;2023-11-18T01:14:31;97414.84;;;3.56;72.41
70589;BME280;58152;49.202;18.744;2023-11-18T01:16:59;97414.00;;;3.55;72.76
70589;BME280;58152;49.202;18.744;2023-11-18T01:19:25;97417.44;;;3.58;73.01
70589;BME280;58152;49.202;18.744;2023-11-18T01:21:50;97412.25;;;3.58;72.56
70589;BME280;58152;49.202;18.744;2023-11-18T01:24:18;97413.94;;;3.59;72.81
70589;BME280;58152;49.202;18.744;2023-11-18T01:26:46;97412.28;;;3.54;73.06
70589;BME280;58152;49.202;18.744;2023-11-18T01:29:12;97422.63;;;3.58;72.80
70589;BME280;58152;49.202;18.744;2023-11-18T01:31:44;97417.47;;;3.54;73.11
70589;BME280;58152;49.202;18.744;2023-11-18T01:34:32;97414.91;;;3.51;73.16
70589;BME280;58152;49.202;18.744;2023-11-18T01:37:04;97421.88;;;3.49;72.91
70589;BME280;58152;49.202;18.744;2023-11-18T01:39:34;97417.59;;;3.47;73.41
70589;BME280;58152;49.202;18.744;2023-11-18T01:42:03;97415.00;;;3.47;73.00
70589;BME280;58152;49.202;18.744;2023-11-18T01:44:31;97421.91;;;3.46;73.35
70589;BME280;58152;49.202;18.744;2023-11-18T01:47:02;97419.31;;;3.46;73.19
70589;BME280;58152;49.202;18.744;2023-11-18T01:49:35;97413.28;;;3.46;73.14
70589;BME280;58152;49.202;18.744;2023-11-18T01:52:13;97408.06;;;3.47;73.06
70589;BME280;58152;49.202;18.744;2023-11-18T01:54:38;97412.41;;;3.47;73.51
70589;BME280;58152;49.202;18.744;2023-11-18T01:57:05;97413.28;;;3.46;73.37
70589;BME280;58152;49.202;18.744;2023-11-18T01:59:37;97413.31;;;3.44;73.08
70589;BME280;58152;49.202;18.744;2023-11-18T02:02:09;97419.38;;;3.45;73.01
70589;BME280;58152;49.202;18.744;2023-11-18T02:04:42;97422.81;;;3.45;72.88
70589;BME280;58152;49.202;18.744;2023-11-18T02:07:10;97417.66;;;3.44;73.19
70589;BME280;58152;49.202;18.744;2023-11-18T02:09:37;97427.16;;;3.45;73.05
70589;BME280;58152;49.202;18.744;2023-11-18T02:12:26;97425.38;;;3.47;73.31
70589;BME280;58152;49.202;18.744;2023-11-18T02:18:06;97429.75;;;3.45;73.08
70589;BME280;58152;49.202;18.744;2023-11-18T02:20:38;97421.09;;;3.44;73.39
70589;BME280;58152;49.202;18.744;2023-11-18T02:23:08;97431.44;;;3.46;73.63
70589;BME280;58152;49.202;18.744;2023-11-18T02:25:34;97428.00;;;3.45;
70589;BME280;58152;49.202;18.744;2023-11-18T02:28:26;97426.28;;;3.43;73.36
70589;BME280;58152;49.202;18.744;2023-11-18T02:31:14;97433.16;;;3.47;73.39
70589;BME280;58152;49.202;18.744;2023-11-18T02:34:04;97435.75;;;3.48;73.32
70589;BME280;58152;49.202;18.744;2023-11-18T02:36:57;97434.03;;;3.46;73.08
70589;BME280;58152;49.202;18.744;2023-11-18T02:39:34;97435.75;;;3.48;73.62
70589;BME280;58152;49.202;18.744;2023-11-18T02:42:07;97434.06;;;3.43;73.42
70589;BME280;58152;49.202;18.744;2023-11-18T02:44:37;97439.25;;;3.43;73.27
70589;BME280;58152;49.202;18.744;2023-11-18T02:47:04;97441.00;;;3.44;73.40
70589;BME280;58152;49.202;18.744;2023-11-18T02:49:34;97434.97;;;3.42;73.58
70589;BME280;58152;49.202;18.744;2023-11-18T02:52:03;97435.81;;;3.42;73.74
70589;BME280;58152;49.202;18.744;2023-11-18T02:54:33;97437.53;;;3.43;73.58
70589;BME280;58152;49.202;18.744;2023-11-18T02:56:58;97435.81;;;3.42;73.81
70589;BME280;58152;49.202;18.744;2023-11-18T02:59:24;97441.06;;;3.39;74.10
70589;BME280;58152;49.202;18.744;2023-11-18T03:01:59;97443.66;;;3.39;74.10
70589;BME280;58152;49.202;18.744;2023-11-18T03:04:30;97446.25;;;3.38;74.03
70589;BME280;58152;49.202;18.744;2023-11-18T03:06:55;97452.34;;;3.37;73.93
70589;BME280;58152;49.202;18.744;2023-11-18T03:09:26;97451.47;;;3.36;73.95
70589;BME280;58152;49.202;18.744;2023-11-18T03:11:58;97445.44;;;3.36;73.75
70589;BME280;58152;49.202;18.744;2023-11-18T03:14:42;97445.44;;;3.34;73.74
70589;BME280;58152;49.202;18.744;2023-11-18T03:17:08;97458.34;;;3.39;73.59
70589;BME280;58152;49.202;18.744;2023-11-18T03:19:35;97461.00;;;3.36;73.80
70589;BME280;58152;49.202;18.744;2023-11-18T03:22:01;97461.00;;;3.36;73.76
70589;BME280;58152;49.202;18.744;2023-11-18T03:24:27;97461.84;;;3.36;73.65
70589;BME280;58152;49.202;18.744;2023-11-18T03:26:56;97463.56;;;3.37;73.75
70589;BME280;58152;49.202;18.744;2023-11-18T03:29:22;97465.28;;;3.38;74.09
70589;BME280;58152;49.202;18.744;2023-11-18T03:31:48;97468.78;;;3.36;73.82
70589;BME280;58152;49.202;18.744;2023-11-18T03:34:17;97461.03;;;3.33;73.78
70589;BME280;58152;49.202;18.744;2023-11-18T03:36:45;97470.56;;;3.32;74.17
70589;BME280;58152;49.202;18.744;2023-11-18T03:39:12;97468.81;;;3.33;73.74
70589;BME280;58152;49.202;18.744;2023-11-18T03:41:38;97473.13;;;3.35;74.11
70589;BME280;58152;49.202;18.744;2023-11-18T03:44:04;97461.00;;;3.34;73.82
70589;BME280;58152;49.202;18.744;2023-11-18T03:46:30;97462.81;;;3.30;73.92
70589;BME280;58152;49.202;18.744;2023-11-18T03:48:59;97461.97;;;3.30;74.27
70589;BME280;58152;49.202;18.744;2023-11-18T03:51:24;97466.19;;;3.34;73.67
70589;BME280;58152;49.202;18.744;2023-11-18T03:53:50;97472.25;;;3.33;73.76
70589;BME280;58152;49.202;18.744;2023-11-18T03:56:19;97474.84;;;3.35;73.98
70589;BME280;58152;49.202;18.744;2023-11-18T03:58:44;97473.09;;;3.37;74.05
70589;BME280;58152;49.202;18.744;2023-11-18T04:01:22;97474.81;;;3.36;73.66
70589;BME280;58152;49.202;18.744;2023-11-18T04:03:49;97473.13;;;3.35;73.58
70589;BME280;58152;49.202;18.744;2023-11-18T04:06:15;97461.00;;;3.34;73.57
70589;BME280;58152;49.202;18.744;2023-11-18T04:08:45;97480.88;;;3.37;73.67
70589;BME280;58152;49.202;18.744;2023-11-18T04:11:12;97472.22;;;3.36;73.53
70589;BME280;58152;49.202;18.744;2023-11-18T04:13:39;97468.78;;;3.34;73.68
70589;BME280;58152;49.202;18.744;2023-11-18T04:16:06;97474.84;;;3.35;73.47
70589;BME280;58152;49.202;18.744;2023-11-18T04:18:31;97476.56;;;3.36;73.35
70589;BME280;58152;49.202;18.744;2023-11-18T04:20:56;97477.41;;;3.36;73.62
70589;BME280;58152;49.202;18.744;2023-11-18T04:23:23;97467.97;;;3.32;73.14
70589;BME280;58152;49.202;18.744;2023-11-18T04:25:48;97477.41;;;3.36;73.72
70589;BME280;58152;49.202;18.744;2023-11-18T04:28:15;97474.81;;;3.36;73.80
70589;BME280;58152;49.202;18.744;2023-11-18T04:30:40;97473.13;;;3.35;74.12
70589;BME280;58152;49.202;18.744;2023-11-18T04:33:06;97471.34;;;3.37;74.00
70589;BME280;58152;49.202;18.744;2023-11-18T04:35:31;97468.78;;;3.36;74.03
70589;BME280;58152;49.202;18.744;2023-11-18T04:37:57;97478.31;;;3.35;74.23
70589;BME280;58152;49.202;18.744;2023-11-18T04:40:22;97477.41;;;3.36;74.09
70589;BME280;58152;49.202;18.744;2023-11-18T04:42:48;97473.13;;;3.34;74.27
70589;BME280;58152;49.202;18.744;2023-11-18T04:45:13;97479.97;;;3.38;74.58
70589;BME280;58152;49.202;18.744;2023-11-18T04:47:39;97478.31;;;3.35;74.65
70589;BME280;58152;49.202;18.744;2023-11-18T04:50:07;97478.28;;;3.37;74.90
70589;BME280;58152;49.202;18.744;2023-11-18T04:52:34;97473.09;;;3.37;74.48
70589;BME280;58152;49.202;18.744;2023-11-18T04:55:02;97485.19;;;3.36;74.04
70589;BME280;58152;49.202;18.744;2023-11-18T04:57:28;97487.81;;;3.35;74.30
70589;BME280;58152;49.202;18.744;2023-11-18T04:59:54;97496.44;;;3.37;74.17
70589;BME280;58152;49.202;18.744;2023-11-18T05:02:19;97495.59;;;3.35;74.34
70589;BME280;58152;49.202;18.744;2023-11-18T05:04:45;97481.75;;;3.34;73.95
70589;BME280;58152;49.202;18.744;2023-11-18T05:07:10;97486.13;;;3.32;73.84
70589;BME280;58152;49.202;18.744;2023-11-18T05:09:36;97488.72;;;3.32;73.68
70589;BME280;58152;49.202;18.744;2023-11-18T05:12:02;97489.56;;;3.33;73.78
70589;BME280;58152;49.202;18.744;2023-11-18T05:14:28;97490.44;;;3.31;74.08
70589;BME280;58152;49.202;18.744;2023-11-18T05:16:54;97489.56;;;3.33;74.46
70589;BME280;58152;49.202;18.744;2023-11-18T05:19:19;97509.47;;;3.32;74.29
70589;BME280;58152;49.202;18.744;2023-11-18T05:21:45;97497.34;;;3.33;74.35
70589;BME280;58152;49.202;18.744;2023-11-18T05:24:14;97503.38;;;3.35;74.07
70589;BME280;58152;49.202;18.744;2023-11-18T05:26:40;97496.50;;;3.32;73.81
70589;BME280;58152;49.202;18.744;2023-11-18T05:29:06;97499.09;;;3.32;74.02
70589;BME280;58152;49.202;18.744;2023-11-18T05:31:31;97506.84;;;3.35;73.90
70589;BME280;58152;49.202;18.744;2023-11-18T05:33:58;97513.75;;;3.33;73.83
70589;BME280;58152;49.202;18.744;2023-11-18T05:36:24;97510.38;;;3.28;73.73
70589;BME280;58152;49.202;18.744;2023-11-18T05:38:54;97518.13;;;3.31;74.22
70589;BME280;58152;49.202;18.744;2023-11-18T05:41:20;97513.00;;;3.26;73.91
70589;BME280;58152;49.202;18.744;2023-11-18T05:43:53;97523.38;;;3.26;74.04
70589;BME280;58152;49.202;18.744;2023-11-18T05:46:22;97518.19;;;3.25;74.10
70589;BME280;58152;49.202;18.744;2023-11-18T05:48:50;97521.69;;;3.22;74.35
70589;BME280;58152;49.202;18.744;2023-11-18T05:51:20;97522.59;;;3.21;74.29
70589;BME280;58152;49.202;18.744;2023-11-18T05:53:46;97531.19;;;3.23;74.75
70589;BME280;58152;49.202;18.744;2023-11-18T05:56:12;97529.47;;;3.22;73.98
70589;BME280;58152;49.202;18.744;2023-11-18T05:58:38;97524.28;;;3.22;74.21
70589;BME280;58152;49.202;18.744;2023-11-18T06:01:08;97532.03;;;3.24;74.45
70589;BME280;58152;49.202;18.744;2023-11-18T06:03:35;97532.03;;;3.25;74.42
70589;BME280;58152;49.202;18.744;2023-11-18T06:06:07;97533.75;;;3.25;74.51
70589;BME280;58152;49.202;18.744;2023-11-18T06:08:34;97532.94;;;3.23;74.47
70589;BME280;58152;49.202;18.744;2023-11-18T06:11:00;97532.97;;;3.21;75.05
70589;BME280;58152;49.202;18.744;2023-11-18T06:13:30;97536.41;;;3.22;74.52
70589;BME280;58152;49.202;18.744;2023-11-18T06:15:56;97536.41;;;3.22;74.50
70589;BME280;58152;49.202;18.744;2023-11-18T06:18:24;97536.41;;;3.22;74.74
70589;BME280;58152;49.202;18.744;2023-11-18T06:20:49;97541.56;;;3.23;74.66
70589;BME280;58152;49.202;18.744;2023-11-18T06:23:15;97536.38;;;3.23;74.78
70589;BME280;58152;49.202;18.744;2023-11-18T06:25:43;97545.84;;;3.24;74.66
70589;BME280;58152;49.202;18.744;2023-11-18T06:28:11;97551.06;;;3.26;74.65
70589;BME280;58152;49.202;18.744;2023-11-18T06:30:36;97549.31;;;3.26;74.73
70589;BME280;58152;49.202;18.744;2023-11-18T06:33:01;97547.59;;;3.25;74.92
70589;BME280;58152;49.202;18.744;2023-11-18T06:35:28;97555.38;;;3.25;75.01
70589;BME280;58152;49.202;18.744;2023-11-18T06:37:55;97564.00;;;3.26;74.91
70589;BME280;58152;49.202;18.744;2023-11-18T06:40:20;97562.28;;;3.26;74.75
70589;BME280;58152;49.202;18.744;2023-11-18T06:42:47;97558.78;;;3.27;74.93
70589;BME280;58152;49.202;18.744;2023-11-18T06:45:13;97553.66;;;3.23;75.04
70589;BME280;58152;49.202;18.744;2023-11-18T06:47:40;97562.34;;;3.22;75.24
70589;BME280;58152;49.202;18.744;2023-11-18T06:50:10;97571.81;;;3.23;75.03
70589;BME280;58152;49.202;18.744;2023-11-18T06:52:39;97563.19;;;3.22;75.13
70589;BME280;58152;49.202;18.744;2023-11-18T06:55:08;97560.56;;;3.24;75.03
70589;BME280;58152;49.202;18.744;2023-11-18T06:57:35;97564.88;;;3.26;75.19
70589;BME280;58152;49.202;18.744;2023-11-18T07:00:01;97576.94;;;3.27;75.52
70589;BME280;58152;49.202;18.744;2023-11-18T07:02:26;97576.09;;;3.27;75.43
70589;BME280;58152;49.202;18.744;2023-11-18T07:04:51;97579.56;;;3.26;75.44
70589;BME280;58152;49.202;18.744;2023-11-18T07:07:17;97572.69;;;3.23;75.92
70589;BME280;58152;49.202;18.744;2023-11-18T07:09:42;97577.03;;;3.20;75.62
70589;BME280;58152;49.202;18.744;2023-11-18T07:12:09;97576.19;;;3.21;76.02
70589;BME280;58152;49.202;18.744;2023-11-18T07:14:35;97574.41;;;3.23;75.33
70589;BME280;58152;49.202;18.744;2023-11-18T07:17:00;97580.47;;;3.23;75.80
70589;BME280;58152;49.202;18.744;2023-11-18T07:19:25;97576.13;;;3.25;75.88
70589;BME280;58152;49.202;18.744;2023-11-18T07:21:51;97583.88;;;3.27;75.79
70589;BME280;58152;49.202;18.744;2023-11-18T07:24:17;97583.00;;;3.28;75.55
70589;BME280;58152;49.202;18.744;2023-11-18T07:26:43;97576.13;;;3.25;75.19
70589;BME280;58152;49.202;18.744;2023-11-18T07:29:09;97580.44;;;3.26;75.37
70589;BME280;58152;49.202;18.744;2023-11-18T07:31:35;97575.25;;;3.25;75.47
70589;BME280;58152;49.202;18.744;2023-11-18T07:34:04;97580.44;;;3.26;75.69
70589;BME280;58152;49.202;18.744;2023-11-18T07:36:31;97584.69;;;3.29;75.48
70589;BME280;58152;49.202;18.744;2023-11-18T07:38:57;97588.16;;;3.31;75.13
70589;BME280;58152;49.202;18.744;2023-11-18T07:41:24;97600.19;;;3.34;75.56
70589;BME280;58152;49.202;18.744;2023-11-18T07:43:53;97590.69;;;3.36;75.10
70589;BME280;58152;49.202;18.744;2023-11-18T07:46:21;97585.44;;;3.39;75.62
70589;BME280;58152;49.202;18.744;2023-11-18T07:48:50;97588.84;;;3.42;75.67
70589;BME280;58152;49.202;18.744;2023-11-18T07:51:17;97586.25;;;3.44;75.98
70589;BME280;58152;49.202;18.744;2023-11-18T07:53:43;97595.69;;;3.48;75.50
70589;BME280;58152;49.202;18.744;2023-11-18T07:56:09;97598.28;;;3.49;75.46
70589;BME280;58152;49.202;18.744;2023-11-18T07:58:37;97593.03;;;3.54;75.82
70589;BME280;58152;49.202;18.744;2023-11-18T08:01:04;97596.50;;;3.53;75.21
70589;BME280;58152;49.202;18.744;2023-11-18T08:03:33;97587.00;;;3.53;75.49
70589;BME280;58152;49.202;18.744;2023-11-18T08:05:59;97591.31;;;3.51;75.53
70589;BME280;58152;49.202;18.744;2023-11-18T08:08:24;97595.66;;;3.51;75.03
70589;BME280;58152;49.202;18.744;2023-11-18T08:10:50;97603.41;;;3.52;75.18
70589;BME280;58152;49.202;18.744;2023-11-18T08:13:16;97599.06;;;3.54;75.99
70589;BME280;58152;49.202;18.744;2023-11-18T08:15:42;97605.13;;;3.55;75.78
70589;BME280;58152;49.202;18.744;2023-11-18T08:18:12;97606.84;;;3.54;75.65
70589;BME280;58152;49.202;18.744;2023-11-18T08:20:41;97610.28;;;3.56;75.59
70589;BME280;58152;49.202;18.744;2023-11-18T08:23:08;97607.75;;;3.53;75.74
70589;BME280;58152;49.202;18.744;2023-11-18T08:25:34;97611.16;;;3.55;75.59
70589;BME280;58152;49.202;18.744;2023-11-18T08:28:01;97612.06;;;3.53;75.99
70589;BME280;58152;49.202;18.744;2023-11-18T08:30:27;97617.25;;;3.53;75.64
70589;BME280;58152;49.202;18.744;2023-11-18T08:32:52;97621.56;;;3.54;75.51
70589;BME280;58152;49.202;18.744;2023-11-18T08:35:18;97627.63;;;3.51;75.91
70589;BME280;58152;49.202;18.744;2023-11-18T08:37:44;97628.47;;;3.55;76.09
70589;BME280;58152;49.202;18.744;2023-11-18T08:40:11;97625.88;;;3.55;75.74
70589;BME280;58152;49.202;18.744;2023-11-18T08:42:51;97627.63;;;3.54;76.00
70589;BME280;58152;49.202;18.744;2023-11-18T08:45:22;97625.00;;;3.54;76.04
70589;BME280;58152;49.202;18.744;2023-11-18T08:47:52;97626.75;;;3.54;75.56
70589;BME280;58152;49.202;18.744;2023-11-18T08:50:18;97631.03;;;3.58;75.71
70589;BME280;58152;49.202;18.744;2023-11-18T08:52:45;97631.91;;;3.55;75.64
70589;BME280;58152;49.202;18.744;2023-11-18T08:55:21;97638.00;;;3.54;75.24
70589;BME280;58152;49.202;18.744;2023-11-18T08:57:47;97644.88;;;3.55;76.22
70589;BME280;58152;49.202;18.744;2023-11-18T09:00:42;97646.66;;;3.53;75.59
70589;BME280;58152;49.202;18.744;2023-11-18T09:03:14;97658.78;;;3.51;75.48
70589;BME280;58152;49.202;18.744;2023-11-18T09:05:46;97653.59;;;3.51;75.68
70589;BME280;58152;49.202;18.744;2023-11-18T09:08:30;97658.78;;;3.53;75.41
70589;BME280;58152;49.202;18.744;2023-11-18T09:11:11;97663.06;;;3.52;75.66
70589;BME280;58152;49.202;18.744;2023-11-18T09:13:42;97668.28;;;3.51;75.54
70589;BME280;58152;49.202;18.744;2023-11-18T09:16:11;97673.47;;;3.54;75.45
70589;BME280;58152;49.202;18.744;2023-11-18T09:18:42;97677.75;;;3.55;75.73
70589;BME280;58152;49.202;18.744;2023-11-18T09:21:11;97682.06;;;3.56;75.69
70589;BME280;58152;49.202;18.744;2023-11-18T09:23:56;97675.13;;;3.56;75.96
70589;BME280;58152;49.202;18.744;2023-11-18T09:26:25;97678.63;;;3.55;75.66
70589;BME280;58152;49.202;18.744;2023-11-18T09:28:55;97687.28;;;3.54;75.69
70589;BME280;58152;49.202;18.744;2023-11-18T09:31:20;97686.38;;;3.57;75.34
70589;BME280;58152;49.202;18.744;2023-11-18T09:33:46;97686.38;;;3.57;75.31
70589;BME280;58152;49.202;18.744;2023-11-18T09:36:19;97693.25;;;3.61;75.07
70589;BME280;58152;49.202;18.744;2023-11-18T09:38:45;97706.19;;;3.64;74.84
70589;BME280;58152;49.202;18.744;2023-11-18T09:41:14;97709.63;;;3.65;75.01
70589;BME280;58152;49.202;18.744;2023-11-18T09:43:42;97707.94;;;3.64;74.78
70589;BME280;58152;49.202;18.744;2023-11-18T09:46:11;97707.03;;;3.65;74.77
70589;BME280;58152;49.202;18.744;2023-11-18T09:48:44;97706.19;;;3.64;74.06
70589;BME280;58152;49.202;18.744;2023-11-18T09:51:24;97703.63;;;3.63;74.29
70589;BME280;58152;49.202;18.744;2023-11-18T09:53:58;97701.88;;;3.62;73.99
70589;BME280;58152;49.202;18.744;2023-11-18T09:59:18;97712.22;;;3.68;74.34
70589;BME280;58152;49.202;18.744;2023-11-18T10:01:54;97707.91;;;3.67;74.18
70589;BME280;58152;49.202;18.744;2023-11-18T10:04:23;97714.81;;;3.66;74.00
70589;BME280;58152;49.202;18.744;2023-11-18T10:06:55;97705.34;;;3.64;73.93
70589;BME280;58152;49.202;18.744;2023-11-18T10:09:23;97715.72;;;3.64;73.35
70589;BME280;58152;49.202;18.744;2023-11-18T10:12:03;97708.81;;;3.61;73.57
70589;BME280;58152;49.202;18.744;2023-11-18T10:14:33;97709.66;;;3.62;73.41
70589;BME280;58152;49.202;18.744;2023-11-18T10:16:59;97716.56;;;3.64;73.24
70589;BME280;58152;49.202;18.744;2023-11-18T10:19:52;97712.22;;;3.68;72.83
70589;BME280;58152;49.202;18.744;2023-11-18T10:22:25;97722.53;;;3.71;72.48
70589;BME280;58152;49.202;18.744;2023-11-18T10:24:52;97719.06;;;3.73;72.65
70589;BME280;58152;49.202;18.744;2023-11-18T10:27:29;97729.41;;;3.76;72.55
70589;BME280;58152;49.202;18.744;2023-11-18T10:30:02;97714.66;;;3.78;73.09
70589;BME280;58152;49.202;18.744;2023-11-18T10:32:31;97706.00;;;3.78;72.93
70589;BME280;58152;49.202;18.744;2023-11-18T10:35:04;97706.81;;;3.83;72.07
70589;BME280;58152;49.202;18.744;2023-11-18T10:37:38;97712.81;;;3.88;72.29
70589;BME280;58152;49.202;18.744;2023-11-18T10:40:08;97712.78;;;3.91;72.07
70589;BME280;58152;49.202;18.744;2023-11-18T10:42:36;97716.19;;;3.93;71.72
70589;BME280;58152;49.202;18.744;2023-11-18T10:45:02;97722.88;;;4.11;71.54
70589;BME280;58152;49.202;18.744;2023-11-18T10:47:32;97731.84;;;4.49;70.81
70589;BME280;58152;49.202;18.744;2023-11-18T10:49:57;97712.44;;;4.71;71.08
70589;BME280;58152;49.202;18.744;2023-11-18T10:52:26;97722.19;;;4.58;70.89
70589;BME280;58152;49.202;18.744;2023-11-18T10:54:56;97726.56;;;4.53;70.71
70589;BME280;58152;49.202;18.744;2023-11-18T10:57:29;97720.56;;;4.51;70.63
70589;BME280;58152;49.202;18.744;2023-11-18T11:00:01;97735.28;;;4.51;70.43
70589;BME280;58152;49.202;18.744;2023-11-18T11:02:32;97727.63;;;4.42;70.68
70589;BME280;58152;49.202;18.744;2023-11-18T11:05:05;97734.47;;;4.47;71.23
70589;BME280;58152;49.202;18.744;2023-11-18T11:07:32;97737.88;;;4.52;70.79
70589;BME280;58152;49.202;18.744;2023-11-18T11:10:01;97739.63;;;4.50;70.55
70589;BME280;58152;49.202;18.744;2023-11-18T11:12:33;97733.66;;;4.45;70.72
70589;BME280;58152;49.202;18.744;2023-11-18T11:15:10;97739.78;;;4.40;70.63
70589;BME280;58152;49.202;18.744;2023-11-18T11:17:39;97740.72;;;4.36;70.59
70589;BME280;58152;49.202;18.744;2023-11-18T11:20:13;97745.03;;;4.35;71.42
70589;BME280;58152;49.202;18.744;2023-11-18T11:23:17;97744.06;;;4.44;70.98
70589;BME280;58152;49.202;18.744;2023-11-18T11:26:05;97739.63;;;4.50;71.10
70589;BME280;58152;49.202;18.744;2023-11-18T11:28:44;97754.38;;;4.50;70.81
70589;BME280;58152;49.202;18.744;2023-11-18T11:31:26;97755.31;;;4.44;70.24
70589;BME280;58152;49.202;18.744;2023-11-18T11:34:01;97744.19;;;4.34;70.66
70589;BME280;58152;49.202;18.744;2023-11-18T11:36:35;97755.50;;;4.32;70.54
70589;BME280;58152;49.202;18.744;2023-11-18T11:39:04;97752.03;;;4.30;70.83
70589;BME280;58152;49.202;18.744;2023-11-18T11:41:36;97750.44;;;4.23;70.45
70589;BME280;58152;49.202;18.744;2023-11-18T11:44:03;97755.59;;;4.24;70.27
70589;BME280;58152;49.202;18.744;2023-11-18T11:46:31;97759.94;;;4.24;70.60
70589;BME280;58152;49.202;18.744;2023-11-18T11:49:04;97758.19;;;4.24;70.83
70589;BME280;58152;49.202;18.744;2023-11-18T11:52:23;97763.41;;;4.23;71.21
70589;BME280;58152;49.202;18.744;2023-11-18T11:55:00;97765.16;;;4.21;70.69
70589;BME280;58152;49.202;18.744;2023-11-18T11:57:32;97763.44;;;4.20;70.96
70589;BME280;58152;49.202;18.744;2023-11-18T12:00:03;97768.66;;;4.17;71.31
70589;BME280;58152;49.202;18.744;2023-11-18T12:02:50;97773.88;;;4.18;71.51
70589;BME280;58152;49.202;18.744;2023-11-18T12:05:20;97779.03;;;4.20;71.38
70589;BME280;58152;49.202;18.744;2023-11-18T12:07:52;97775.59;;;4.18;71.82
70589;BME280;58152;49.202;18.744;2023-11-18T12:10:17;97774.69;;;4.20;71.76
70589;BME280;58152;49.202;18.744;2023-11-18T12:12:45;97774.69;;;4.20;71.40
70589;BME280;58152;49.202;18.744;2023-11-18T12:15:11;97770.38;;;4.19;71.70
70589;BME280;58152;49.202;18.744;2023-11-18T12:23:10;97780.78;;;4.19;71.72
70589;BME280;58152;49.202;18.744;2023-11-18T12:25:46;97780.75;;;4.21;71.92
70589;BME280;58152;49.202;18.744;2023-11-18T12:28:17;97770.41;;;4.18;71.74
70589;BME280;58152;49.202;18.744;2023-11-18T12:30:47;97776.44;;;4.20;72.10
70589;BME280;58152;49.202;18.744;2023-11-18T12:33:26;97780.78;;;4.19;72.42
70589;BME280;58152;49.202;18.744;2023-11-18T12:39:39;97800.69;;;4.19;72.76
70589;BME280;58152;49.202;18.744;2023-11-18T12:42:44;97797.25;;;4.18;72.61
70589;BME280;58152;49.202;18.744;2023-11-18T12:48:05;97799.84;;;4.17;72.23
70589;BME280;58152;49.202;18.744;2023-11-18T12:50:39;97805.81;;;4.25;72.04
70589;BME280;58152;49.202;18.744;2023-11-18T12:53:05;97814.44;;;4.27;71.52
70589;BME280;58152;49.202;18.744;2023-11-18T12:55:32;97817.91;;;4.26;71.49
70589;BME280;58152;49.202;18.744;2023-11-18T12:58:01;97823.09;;;4.26;72.22
70589;BME280;58152;49.202;18.744;2023-11-18T13:00:27;97828.31;;;4.24;71.90
70589;BME280;58152;49.202;18.744;2023-11-18T13:02:53;97825.72;;;4.24;72.23
70589;BME280;58152;49.202;18.744;2023-11-18T13:05:20;97829.22;;;4.23;72.63
70589;BME280;58152;49.202;18.744;2023-11-18T13:07:45;97824.91;;;4.22;72.64
70589;BME280;58152;49.202;18.744;2023-11-18T13:10:12;97829.28;;;4.17;72.78
70589;BME280;58152;49.202;18.744;2023-11-18T13:12:41;97835.38;;;4.15;72.92
70589;BME280;58152;49.202;18.744;2023-11-18T13:15:09;97827.63;;;4.10;73.01
70589;BME280;58152;49.202;18.744;2023-11-18T13:17:34;97841.47;;;4.11;72.55
70589;BME280;58152;49.202;18.744;2023-11-18T13:20:11;97841.50;;;4.09;72.80
70589;BME280;58152;49.202;18.744;2023-11-18T13:22:38;97841.50;;;4.09;73.09
70589;BME280;58152;49.202;18.744;2023-11-18T13:25:04;97844.09;;;4.07;73.57
70589;BME280;58152;49.202;18.744;2023-11-18T13:27:30;97857.09;;;4.07;73.32
70589;BME280;58152;49.202;18.744;2023-11-18T13:29:58;97868.34;;;4.08;73.21
70589;BME280;58152;49.202;18.744;2023-11-18T13:32:23;97876.16;;;4.06;73.35